createdAt,value
2018-12-11T00:00:28.572Z,1008.29
2018-12-11T00:01:28.580Z,1008.29
2018-12-11T00:02:28.572Z,1008.26
2018-12-11T00:03:28.541Z,1008.34
2018-12-11T00:04:28.543Z,1008.24
2018-12-11T00:05:28.518Z,1008.21
2018-12-11T00:06:28.509Z,1008.20
2018-12-11T00:07:28.493Z,1008.24
2018-12-11T00:08:28.478Z,1008.14
2018-12-11T00:09:28.496Z,1008.19
2018-12-11T00:10:28.494Z,1008.14
2018-12-11T00:11:33.896Z,1008.19
2018-12-11T00:12:29.456Z,1008.18
2018-12-11T00:13:28.459Z,1008.17
2018-12-11T00:14:28.448Z,1008.25
2018-12-11T00:15:28.431Z,1008.25
2018-12-11T00:16:28.402Z,1008.19
2018-12-11T00:17:28.379Z,1008.19
2018-12-11T00:18:28.400Z,1008.18
2018-12-11T00:19:28.368Z,1008.21
2018-12-11T00:20:28.372Z,1008.16
2018-12-11T00:21:28.344Z,1008.16
2018-12-11T00:22:28.352Z,1008.19
2018-12-11T00:23:28.338Z,1008.18
2018-12-11T00:24:28.332Z,1008.23
2018-12-11T00:25:28.320Z,1008.19
2018-12-11T00:26:28.291Z,1008.15
2018-12-11T00:27:28.277Z,1008.16
2018-12-11T00:28:28.272Z,1008.13
2018-12-11T00:29:28.275Z,1008.17
2018-12-11T00:30:28.242Z,1008.12
2018-12-11T00:31:28.292Z,1008.12
2018-12-11T00:32:28.247Z,1008.18
2018-12-11T00:33:28.217Z,1008.21
2018-12-11T00:34:28.238Z,1008.22
2018-12-11T00:35:28.197Z,1008.20
2018-12-11T00:36:28.176Z,1008.15
2018-12-11T00:37:28.190Z,1008.15
2018-12-11T00:38:28.218Z,1008.17
2018-12-11T00:39:28.152Z,1008.17
2018-12-11T00:40:28.131Z,1008.21
2018-12-11T00:41:28.129Z,1008.23
2018-12-11T00:42:28.120Z,1008.22
2018-12-11T00:43:28.128Z,1008.20
2018-12-11T00:44:28.107Z,1008.25
2018-12-11T00:45:28.089Z,1008.24
2018-12-11T00:46:28.074Z,1008.17
2018-12-11T00:47:28.083Z,1008.20
2018-12-11T00:48:28.053Z,1008.06
2018-12-11T00:49:28.094Z,1008.00
2018-12-11T00:50:28.031Z,1008.03
2018-12-11T00:51:28.025Z,1008.00
2018-12-11T00:52:28.018Z,1008.06
2018-12-11T00:53:27.998Z,1008.00
2018-12-11T00:54:28.006Z,1008.02
2018-12-11T00:55:27.977Z,1007.95
2018-12-11T00:56:27.973Z,1007.93
2018-12-11T00:57:27.974Z,1007.93
2018-12-11T00:58:27.950Z,1008.02
2018-12-11T00:59:27.947Z,1008.10
2018-12-11T01:00:27.939Z,1008.06
2018-12-11T01:01:27.926Z,1008.07
2018-12-11T01:02:27.901Z,1008.06
2018-12-11T01:03:27.897Z,1008.04
2018-12-11T01:04:27.886Z,1008.10
2018-12-11T01:05:27.894Z,1008.11
2018-12-11T01:06:27.868Z,1008.15
2018-12-11T01:07:27.848Z,1008.15
2018-12-11T01:08:27.860Z,1008.04
2018-12-11T01:09:27.881Z,1008.04
2018-12-11T01:10:27.838Z,1008.12
2018-12-11T01:11:27.808Z,1008.07
2018-12-11T01:12:27.795Z,1008.07
2018-12-11T01:13:27.784Z,1008.12
2018-12-11T01:14:27.790Z,1008.18
2018-12-11T01:15:27.789Z,1008.24
2018-12-11T01:16:27.799Z,1008.14
2018-12-11T01:17:27.761Z,1008.16
2018-12-11T01:18:27.742Z,1008.15
2018-12-11T01:19:27.769Z,1008.21
2018-12-11T01:20:27.746Z,1008.21
2018-12-11T01:21:27.708Z,1008.27
2018-12-11T01:22:27.719Z,1008.22
2018-12-11T01:23:27.680Z,1008.19
2018-12-11T01:24:27.672Z,1008.22
2018-12-11T01:25:27.661Z,1008.26
2018-12-11T01:26:27.690Z,1008.28
2018-12-11T01:27:27.635Z,1008.18
2018-12-11T01:28:27.629Z,1008.24
2018-12-11T01:29:27.622Z,1008.16
2018-12-11T01:30:27.613Z,1008.19
2018-12-11T01:31:27.601Z,1008.25
2018-12-11T01:32:27.588Z,1008.20
2018-12-11T01:33:27.612Z,1008.17
2018-12-11T01:34:27.604Z,1008.20
2018-12-11T01:35:27.570Z,1008.20
2018-12-11T01:36:27.569Z,1008.25
2018-12-11T01:37:27.533Z,1008.21
2018-12-11T01:38:27.565Z,1008.23
2018-12-11T01:39:27.509Z,1008.34
2018-12-11T01:40:27.517Z,1008.23
2018-12-11T01:41:27.488Z,1008.23
2018-12-11T01:42:27.503Z,1008.12
2018-12-11T01:43:27.482Z,1008.17
2018-12-11T01:44:27.470Z,1008.23
2018-12-11T01:45:27.437Z,1008.14
2018-12-11T01:46:27.448Z,1008.20
2018-12-11T01:47:27.444Z,1008.16
2018-12-11T01:48:27.456Z,1008.15
2018-12-11T01:49:27.422Z,1008.26
2018-12-11T01:50:27.394Z,1008.27
2018-12-11T01:51:27.379Z,1008.24
2018-12-11T01:52:27.419Z,1008.19
2018-12-11T01:53:27.366Z,1008.20
2018-12-11T01:54:27.434Z,1008.22
2018-12-11T01:55:27.339Z,1008.14
2018-12-11T01:56:27.340Z,1008.28
2018-12-11T01:57:27.326Z,1008.33
2018-12-11T01:58:27.306Z,1008.31
2018-12-11T01:59:27.301Z,1008.32
2018-12-11T02:00:27.296Z,1008.21
2018-12-11T02:01:27.296Z,1008.29
2018-12-11T02:02:27.282Z,1008.30
2018-12-11T02:03:27.265Z,1008.26
2018-12-11T02:04:27.246Z,1008.30
2018-12-11T02:05:27.227Z,1008.32
2018-12-11T02:06:27.250Z,1008.32
2018-12-11T02:07:27.220Z,1008.29
2018-12-11T02:08:27.235Z,1008.27
2018-12-11T02:09:27.203Z,1008.22
2018-12-11T02:10:27.184Z,1008.20
2018-12-11T02:11:27.231Z,1008.13
2018-12-11T02:12:27.156Z,1008.21
2018-12-11T02:13:27.166Z,1008.25
2018-12-11T02:14:27.140Z,1008.21
2018-12-11T02:15:27.133Z,1008.13
2018-12-11T02:16:27.117Z,1008.22
2018-12-11T02:17:27.119Z,1008.17
2018-12-11T02:18:27.176Z,1008.16
2018-12-11T02:19:27.119Z,1008.25
2018-12-11T02:20:27.083Z,1008.21
2018-12-11T02:21:27.067Z,1008.13
2018-12-11T02:22:27.064Z,1008.10
2018-12-11T02:23:27.064Z,1008.13
2018-12-11T02:24:27.035Z,1008.05
2018-12-11T02:25:27.028Z,1008.10
2018-12-11T02:26:27.006Z,1008.09
2018-12-11T02:27:27.009Z,1008.11
2018-12-11T02:28:27.002Z,1008.08
2018-12-11T02:29:27.008Z,1008.11
2018-12-11T02:30:26.969Z,1008.10
2018-12-11T02:31:26.964Z,1008.11
2018-12-11T02:32:26.951Z,1008.10
2018-12-11T02:33:26.941Z,1008.05
2018-12-11T02:34:26.944Z,1008.16
2018-12-11T02:35:26.914Z,1008.12
2018-12-11T02:36:26.903Z,1008.08
2018-12-11T02:37:26.907Z,1008.12
2018-12-11T02:38:26.881Z,1008.16
2018-12-11T02:39:26.915Z,1008.13
2018-12-11T02:40:26.878Z,1008.21
2018-12-11T02:41:26.868Z,1008.17
2018-12-11T02:42:26.857Z,1008.12
2018-12-11T02:43:26.826Z,1008.20
2018-12-11T02:44:26.887Z,1008.15
2018-12-11T02:45:26.820Z,1008.20
2018-12-11T02:46:26.803Z,1008.20
2018-12-11T02:47:26.782Z,1008.20
2018-12-11T02:48:26.782Z,1008.13
2018-12-11T02:49:26.767Z,1008.13
2018-12-11T02:50:26.771Z,1008.07
2018-12-11T02:51:26.754Z,1008.04
2018-12-11T02:52:26.749Z,1008.09
2018-12-11T02:53:26.730Z,1008.03
2018-12-11T02:54:26.727Z,1007.98
2018-12-11T02:55:26.697Z,1008.00
2018-12-11T02:56:26.697Z,1008.05
2018-12-11T02:57:26.681Z,1008.04
2018-12-11T02:58:26.671Z,1008.00
2018-12-11T02:59:26.660Z,1007.98
2018-12-11T03:00:26.657Z,1008.00
2018-12-11T03:01:26.647Z,1008.01
2018-12-11T03:02:26.647Z,1007.97
2018-12-11T03:03:26.625Z,1008.00
2018-12-11T03:04:26.609Z,1008.11
2018-12-11T03:05:26.617Z,1008.11
2018-12-11T03:06:26.584Z,1008.07
2018-12-11T03:07:26.571Z,1008.12
2018-12-11T03:08:26.584Z,1008.07
2018-12-11T03:09:26.555Z,1008.09
2018-12-11T03:10:26.539Z,1008.11
2018-12-11T03:11:26.529Z,1008.14
2018-12-11T03:12:26.529Z,1008.12
2018-12-11T03:13:26.524Z,1008.15
2018-12-11T03:14:26.497Z,1008.17
2018-12-11T03:15:26.530Z,1008.14
2018-12-11T03:16:26.471Z,1008.16
2018-12-11T03:17:26.503Z,1008.11
2018-12-11T03:18:26.477Z,1008.06
2018-12-11T03:19:26.447Z,1008.13
2018-12-11T03:20:26.443Z,1008.19
2018-12-11T03:21:26.420Z,1008.10
2018-12-11T03:22:26.412Z,1008.19
2018-12-11T03:23:26.417Z,1008.12
2018-12-11T03:24:26.412Z,1008.05
2018-12-11T03:25:26.384Z,1008.09
2018-12-11T03:26:26.384Z,1008.15
2018-12-11T03:27:26.395Z,1008.12
2018-12-11T03:28:26.357Z,1008.13
2018-12-11T03:29:26.358Z,1008.13
2018-12-11T03:30:26.325Z,1008.10
2018-12-11T03:31:26.335Z,1008.14
2018-12-11T03:32:26.312Z,1008.11
2018-12-11T03:33:26.319Z,1008.13
2018-12-11T03:34:26.288Z,1008.12
2018-12-11T03:35:26.296Z,1008.10
2018-12-11T03:36:26.300Z,1008.03
2018-12-11T03:37:26.253Z,1008.07
2018-12-11T03:38:26.269Z,1008.02
2018-12-11T03:39:26.225Z,1008.06
2018-12-11T03:40:26.218Z,1008.08
2018-12-11T03:41:26.226Z,1008.05
2018-12-11T03:42:26.194Z,1008.07
2018-12-11T03:43:26.206Z,1008.05
2018-12-11T03:44:26.179Z,1008.08
2018-12-11T03:45:26.166Z,1008.03
2018-12-11T03:46:26.166Z,1008.06
2018-12-11T03:47:26.159Z,1008.09
2018-12-11T03:48:26.242Z,1008.05
2018-12-11T03:49:26.127Z,1008.09
2018-12-11T03:50:26.119Z,1008.08
2018-12-11T03:51:26.132Z,1008.12
2018-12-11T03:52:26.106Z,1008.12
2018-12-11T03:53:26.082Z,1008.07
2018-12-11T03:54:26.077Z,1008.06
2018-12-11T03:55:26.070Z,1008.10
2018-12-11T03:56:26.052Z,1008.08
2018-12-11T03:57:26.043Z,1008.07
2018-12-11T03:58:26.041Z,1008.11
2018-12-11T03:59:26.016Z,1008.04
2018-12-11T04:00:26.006Z,1008.03
2018-12-11T04:01:26.016Z,1008.01
2018-12-11T04:02:26.017Z,1008.00
2018-12-11T04:03:25.976Z,1008.05
2018-12-11T04:04:25.962Z,1008.04
2018-12-11T04:05:25.948Z,1008.07
2018-12-11T04:06:25.967Z,1008.03
2018-12-11T04:07:25.947Z,1008.04
2018-12-11T04:08:25.953Z,1008.06
2018-12-11T04:09:25.944Z,1008.07
2018-12-11T04:10:25.907Z,1008.10
2018-12-11T04:11:25.881Z,1008.03
2018-12-11T04:12:25.871Z,1008.02
2018-12-11T04:13:25.888Z,1008.00
2018-12-11T04:14:25.868Z,1007.97
2018-12-11T04:15:25.851Z,1008.02
2018-12-11T04:16:25.846Z,1008.01
2018-12-11T04:17:25.822Z,1008.06
2018-12-11T04:18:25.826Z,1008.03
2018-12-11T04:19:25.809Z,1008.09
2018-12-11T04:20:25.799Z,1008.05
2018-12-11T04:21:25.783Z,1008.07
2018-12-11T04:22:25.805Z,1008.06
2018-12-11T04:23:25.773Z,1008.10
2018-12-11T04:24:25.758Z,1008.07
2018-12-11T04:25:25.751Z,1008.10
2018-12-11T04:26:25.729Z,1008.11
2018-12-11T04:27:25.724Z,1008.16
2018-12-11T04:28:25.759Z,1008.14
2018-12-11T04:29:25.703Z,1008.15
2018-12-11T04:30:25.686Z,1008.16
2018-12-11T04:31:25.664Z,1008.17
2018-12-11T04:32:25.688Z,1008.12
2018-12-11T04:33:25.644Z,1008.10
2018-12-11T04:34:25.671Z,1008.09
2018-12-11T04:35:25.697Z,1008.11
2018-12-11T04:36:25.640Z,1008.06
2018-12-11T04:37:25.607Z,1008.04
2018-12-11T04:38:25.592Z,1008.09
2018-12-11T04:39:25.597Z,1008.14
2018-12-11T04:40:25.582Z,1008.10
2018-12-11T04:41:25.588Z,1008.10
2018-12-11T04:42:25.561Z,1008.08
2018-12-11T04:43:25.564Z,1008.02
2018-12-11T04:44:25.556Z,1008.12
2018-12-11T04:45:25.526Z,1008.09
2018-12-11T04:46:25.507Z,1008.11
2018-12-11T04:47:25.511Z,1008.10
2018-12-11T04:48:25.490Z,1008.08
2018-12-11T04:49:25.492Z,1008.08
2018-12-11T04:50:25.466Z,1008.09
2018-12-11T04:51:25.449Z,1008.12
2018-12-11T04:52:25.459Z,1008.19
2018-12-11T04:53:25.434Z,1008.21
2018-12-11T04:54:25.433Z,1008.16
2018-12-11T04:55:25.410Z,1008.24
2018-12-11T04:56:25.412Z,1008.25
2018-12-11T04:57:25.402Z,1008.21
2018-12-11T04:58:25.378Z,1008.24
2018-12-11T04:59:25.371Z,1008.22
2018-12-11T05:00:25.400Z,1008.25
2018-12-11T05:01:25.349Z,1008.19
2018-12-11T05:02:25.340Z,1008.19
2018-12-11T05:03:25.331Z,1008.20
2018-12-11T05:04:25.320Z,1008.18
2018-12-11T05:05:25.321Z,1008.26
2018-12-11T05:06:25.339Z,1008.23
2018-12-11T05:07:25.289Z,1008.25
2018-12-11T05:08:25.308Z,1008.26
2018-12-11T05:09:25.261Z,1008.24
2018-12-11T05:10:25.252Z,1008.28
2018-12-11T05:11:25.244Z,1008.27
2018-12-11T05:12:25.232Z,1008.30
2018-12-11T05:13:25.277Z,1008.27
2018-12-11T05:14:25.214Z,1008.24
2018-12-11T05:15:25.202Z,1008.23
2018-12-11T05:16:25.185Z,1008.23
2018-12-11T05:17:25.177Z,1008.27
2018-12-11T05:18:25.165Z,1008.22
2018-12-11T05:19:25.216Z,1008.26
2018-12-11T05:20:25.147Z,1008.22
2018-12-11T05:21:25.135Z,1008.17
2018-12-11T05:22:25.124Z,1008.18
2018-12-11T05:23:25.119Z,1008.14
2018-12-11T05:24:25.106Z,1008.15
2018-12-11T05:25:25.100Z,1008.14
2018-12-11T05:26:25.078Z,1008.11
2018-12-11T05:27:25.063Z,1008.17
2018-12-11T05:28:25.054Z,1008.10
2018-12-11T05:29:25.076Z,1008.12
2018-12-11T05:30:25.041Z,1008.13
2018-12-11T05:31:25.034Z,1008.16
2018-12-11T05:32:25.023Z,1008.09
2018-12-11T05:33:25.007Z,1008.13
2018-12-11T05:34:25.003Z,1008.13
2018-12-11T05:35:25.003Z,1008.13
2018-12-11T05:36:24.989Z,1008.16
2018-12-11T05:37:24.955Z,1008.18
2018-12-11T05:38:24.952Z,1008.13
2018-12-11T05:39:24.950Z,1008.12
2018-12-11T05:40:24.944Z,1008.10
2018-12-11T05:41:24.914Z,1008.11
2018-12-11T05:42:24.900Z,1008.14
2018-12-11T05:43:24.906Z,1008.13
2018-12-11T05:44:24.902Z,1008.14
2018-12-11T05:45:24.880Z,1008.19
2018-12-11T05:46:24.889Z,1008.14
2018-12-11T05:47:24.844Z,1008.12
2018-12-11T05:48:24.853Z,1008.15
2018-12-11T05:49:24.844Z,1008.15
2018-12-11T05:50:24.818Z,1008.14
2018-12-11T05:51:24.808Z,1008.16
2018-12-11T05:52:24.799Z,1008.15
2018-12-11T05:53:24.786Z,1008.17
2018-12-11T05:54:24.782Z,1008.13
2018-12-11T05:55:24.769Z,1008.16
2018-12-11T05:56:24.751Z,1008.15
2018-12-11T05:57:24.750Z,1008.17
2018-12-11T05:58:24.740Z,1008.10
2018-12-11T05:59:24.715Z,1008.11
2018-12-11T06:00:24.755Z,1008.11
2018-12-11T06:01:24.747Z,1008.05
2018-12-11T06:02:24.682Z,1008.09
2018-12-11T06:03:24.694Z,1008.09
2018-12-11T06:04:24.696Z,1008.11
2018-12-11T06:05:24.656Z,1008.13
2018-12-11T06:06:24.665Z,1008.17
2018-12-11T06:07:24.641Z,1008.16
2018-12-11T06:08:24.657Z,1008.15
2018-12-11T06:09:24.651Z,1008.11
2018-12-11T06:10:24.617Z,1008.16
2018-12-11T06:11:24.595Z,1008.18
2018-12-11T06:12:24.597Z,1008.15
2018-12-11T06:13:24.570Z,1008.16
2018-12-11T06:14:24.559Z,1008.23
2018-12-11T06:15:24.550Z,1008.18
2018-12-11T06:16:24.542Z,1008.17
2018-12-11T06:17:24.571Z,1008.24
2018-12-11T06:18:24.530Z,1008.24
2018-12-11T06:19:24.501Z,1008.24
2018-12-11T06:20:24.495Z,1008.20
2018-12-11T06:21:24.494Z,1008.19
2018-12-11T06:22:24.467Z,1008.20
2018-12-11T06:23:24.478Z,1008.20
2018-12-11T06:24:24.458Z,1008.10
2018-12-11T06:25:24.444Z,1008.14
2018-12-11T06:26:24.453Z,1008.17
2018-12-11T06:27:24.447Z,1008.15
2018-12-11T06:28:24.430Z,1008.18
2018-12-11T06:29:24.403Z,1008.14
2018-12-11T06:30:24.400Z,1008.10
2018-12-11T06:31:24.371Z,1008.13
2018-12-11T06:32:24.361Z,1008.10
2018-12-11T06:33:24.367Z,1008.13
2018-12-11T06:34:24.372Z,1008.13
2018-12-11T06:35:24.337Z,1008.11
2018-12-11T06:36:24.328Z,1008.15
2018-12-11T06:37:24.320Z,1008.10
2018-12-11T06:38:24.301Z,1008.11
2018-12-11T06:39:24.302Z,1008.14
2018-12-11T06:40:24.299Z,1008.09
2018-12-11T06:41:24.280Z,1008.14
2018-12-11T06:42:24.282Z,1008.16
2018-12-11T06:43:24.284Z,1008.15
2018-12-11T06:44:24.255Z,1008.15
2018-12-11T06:45:24.249Z,1008.18
2018-12-11T06:46:24.211Z,1008.23
2018-12-11T06:47:24.218Z,1008.24
2018-12-11T06:48:24.194Z,1008.26
2018-12-11T06:49:24.189Z,1008.25
2018-12-11T06:50:24.207Z,1008.27
2018-12-11T06:51:24.167Z,1008.24
2018-12-11T06:52:24.168Z,1008.20
2018-12-11T06:53:24.160Z,1008.22
2018-12-11T06:54:24.183Z,1008.25
2018-12-11T06:55:24.118Z,1008.30
2018-12-11T06:56:24.116Z,1008.26
2018-12-11T06:57:24.094Z,1008.24
2018-12-11T06:58:24.132Z,1008.19
2018-12-11T06:59:24.076Z,1008.23
2018-12-11T07:00:24.074Z,1008.23
2018-12-11T07:01:24.052Z,1008.22
2018-12-11T07:02:24.048Z,1008.19
2018-12-11T07:03:24.056Z,1008.17
2018-12-11T07:04:24.022Z,1008.17
2018-12-11T07:05:24.024Z,1008.14
2018-12-11T07:06:24.010Z,1008.19
2018-12-11T07:07:24.053Z,1008.23
2018-12-11T07:08:23.979Z,1008.24
2018-12-11T07:09:23.963Z,1008.25
2018-12-11T07:10:23.970Z,1008.20
2018-12-11T07:11:23.937Z,1008.18
2018-12-11T07:12:23.973Z,1008.28
2018-12-11T07:13:23.944Z,1008.24
2018-12-11T07:14:23.917Z,1008.22
2018-12-11T07:15:23.910Z,1008.28
2018-12-11T07:16:23.891Z,1008.28
2018-12-11T07:17:23.895Z,1008.32
2018-12-11T07:18:26.033Z,1008.28
2018-12-11T07:19:23.859Z,1008.26
2018-12-11T07:20:23.872Z,1008.28
2018-12-11T07:21:23.848Z,1008.32
2018-12-11T07:22:23.828Z,1008.30
2018-12-11T07:23:23.816Z,1008.28
2018-12-11T07:24:23.804Z,1008.30
2018-12-11T07:25:23.803Z,1008.39
2018-12-11T07:26:23.822Z,1008.37
2018-12-11T07:27:24.139Z,1008.43
2018-12-11T07:28:23.757Z,1008.43
2018-12-11T07:29:23.741Z,1008.43
2018-12-11T07:30:23.731Z,1008.42
2018-12-11T07:31:23.776Z,1008.41
2018-12-11T07:32:23.724Z,1008.52
2018-12-11T07:33:23.715Z,1008.45
2018-12-11T07:34:23.700Z,1008.48
2018-12-11T07:35:23.687Z,1008.47
2018-12-11T07:36:23.704Z,1008.46
2018-12-11T07:37:23.659Z,1008.44
2018-12-11T07:38:23.671Z,1008.43
2018-12-11T07:39:23.678Z,1008.43
2018-12-11T07:40:23.649Z,1008.45
2018-12-11T07:41:23.635Z,1008.47
2018-12-11T07:42:23.621Z,1008.47
2018-12-11T07:43:23.611Z,1008.46
2018-12-11T07:44:23.587Z,1008.49
2018-12-11T07:45:23.595Z,1008.44
2018-12-11T07:46:23.632Z,1008.49
2018-12-11T07:47:23.599Z,1008.52
2018-12-11T07:48:23.542Z,1008.50
2018-12-11T07:49:23.549Z,1008.52
2018-12-11T07:50:23.513Z,1008.50
2018-12-11T07:51:23.567Z,1008.59
2018-12-11T07:52:23.499Z,1008.54
2018-12-11T07:53:23.496Z,1008.54
2018-12-11T07:54:23.486Z,1008.60
2018-12-11T07:55:23.471Z,1008.56
2018-12-11T07:56:23.462Z,1008.56
2018-12-11T07:57:23.460Z,1008.55
2018-12-11T07:58:23.469Z,1008.53
2018-12-11T07:59:23.479Z,1008.57
2018-12-11T08:00:23.427Z,1008.54
2018-12-11T08:01:23.409Z,1008.58
2018-12-11T08:02:23.384Z,1008.59
2018-12-11T08:03:23.378Z,1008.55
2018-12-11T08:04:23.394Z,1008.55
2018-12-11T08:05:23.374Z,1008.57
2018-12-11T08:06:23.390Z,1008.55
2018-12-11T08:07:23.345Z,1008.57
2018-12-11T08:08:23.353Z,1008.55
2018-12-11T08:09:23.327Z,1008.58
2018-12-11T08:10:23.334Z,1008.56
2018-12-11T08:11:23.325Z,1008.56
2018-12-11T08:12:23.346Z,1008.58
2018-12-11T08:13:23.277Z,1008.57
2018-12-11T08:14:23.261Z,1008.53
2018-12-11T08:15:23.261Z,1008.55
2018-12-11T08:16:23.253Z,1008.52
2018-12-11T08:17:23.236Z,1008.55
2018-12-11T08:18:23.227Z,1008.52
2018-12-11T08:19:23.214Z,1008.52
2018-12-11T08:20:23.195Z,1008.56
2018-12-11T08:21:23.233Z,1008.56
2018-12-11T08:22:23.177Z,1008.65
2018-12-11T08:23:23.162Z,1008.62
2018-12-11T08:24:23.167Z,1008.62
2018-12-11T08:25:23.164Z,1008.60
2018-12-11T08:26:23.166Z,1008.63
2018-12-11T08:27:23.121Z,1008.67
2018-12-11T08:28:23.110Z,1008.67
2018-12-11T08:29:23.139Z,1008.65
2018-12-11T08:30:23.124Z,1008.69
2018-12-11T08:31:23.091Z,1008.67
2018-12-11T08:32:23.066Z,1008.67
2018-12-11T08:33:23.060Z,1008.62
2018-12-11T08:34:23.071Z,1008.62
2018-12-11T08:35:23.053Z,1008.66
2018-12-11T08:36:23.034Z,1008.63
2018-12-11T08:37:23.028Z,1008.57
2018-12-11T08:38:23.007Z,1008.54
2018-12-11T08:39:23.027Z,1008.55
2018-12-11T08:40:22.992Z,1008.61
2018-12-11T08:41:22.966Z,1008.57
2018-12-11T08:42:22.957Z,1008.57
2018-12-11T08:43:22.957Z,1008.54
2018-12-11T08:44:22.944Z,1008.52
2018-12-11T08:45:22.966Z,1008.56
2018-12-11T08:46:22.921Z,1008.48
2018-12-11T08:47:22.920Z,1008.52
2018-12-11T08:48:22.909Z,1008.55
2018-12-11T08:49:22.890Z,1008.63
2018-12-11T08:50:22.920Z,1008.57
2018-12-11T08:51:22.863Z,1008.58
2018-12-11T08:52:22.871Z,1008.61
2018-12-11T08:53:22.837Z,1008.61
2018-12-11T08:54:22.839Z,1008.61
2018-12-11T08:55:22.829Z,1008.63
2018-12-11T08:56:22.811Z,1008.64
2018-12-11T08:57:22.804Z,1008.56
2018-12-11T08:58:22.800Z,1008.58
2018-12-11T08:59:22.810Z,1008.60
2018-12-11T09:00:22.816Z,1008.61
2018-12-11T09:01:22.757Z,1008.54
2018-12-11T09:02:22.749Z,1008.57
2018-12-11T09:03:22.754Z,1008.59
2018-12-11T09:04:22.737Z,1008.57
2018-12-11T09:05:22.708Z,1008.67
2018-12-11T09:06:22.693Z,1008.66
2018-12-11T09:07:22.691Z,1008.65
2018-12-11T09:08:22.700Z,1008.61
2018-12-11T09:09:22.687Z,1008.65
2018-12-11T09:10:22.691Z,1008.69
2018-12-11T09:11:22.649Z,1008.69
2018-12-11T09:12:22.633Z,1008.69
2018-12-11T09:13:22.620Z,1008.69
2018-12-11T09:14:22.616Z,1008.69
2018-12-11T09:15:22.616Z,1008.70
2018-12-11T09:16:22.593Z,1008.73
2018-12-11T09:17:22.589Z,1008.75
2018-12-11T09:18:22.567Z,1008.79
2018-12-11T09:19:22.555Z,1008.79
2018-12-11T09:20:22.548Z,1008.87
2018-12-11T09:21:22.585Z,1008.80
2018-12-11T09:22:22.536Z,1008.81
2018-12-11T09:23:22.513Z,1008.82
2018-12-11T09:24:22.500Z,1008.84
2018-12-11T09:25:22.501Z,1008.81
2018-12-11T09:26:22.479Z,1008.88
2018-12-11T09:27:22.482Z,1008.83
2018-12-11T09:28:22.506Z,1008.86
2018-12-11T09:29:22.460Z,1008.91
2018-12-11T09:30:22.442Z,1008.95
2018-12-11T09:31:22.465Z,1008.95
2018-12-11T09:32:22.415Z,1008.98
2018-12-11T09:33:22.403Z,1008.89
2018-12-11T09:34:22.428Z,1008.89
2018-12-11T09:35:22.387Z,1008.91
2018-12-11T09:36:22.373Z,1008.84
2018-12-11T09:37:22.382Z,1008.87
2018-12-11T09:38:22.359Z,1008.78
2018-12-11T09:39:22.349Z,1008.89
2018-12-11T09:40:24.661Z,1008.87
2018-12-11T09:41:22.323Z,1008.84
2018-12-11T09:42:27.759Z,1008.77
2018-12-11T09:43:23.313Z,1008.73
2018-12-11T09:44:22.327Z,1008.79
2018-12-11T09:45:22.285Z,1008.80
2018-12-11T09:46:22.261Z,1008.84
2018-12-11T09:47:22.262Z,1008.83
2018-12-11T09:48:22.277Z,1008.87
2018-12-11T09:49:22.237Z,1008.78
2018-12-11T09:50:22.230Z,1008.75
2018-12-11T09:51:22.218Z,1008.78
2018-12-11T09:52:22.199Z,1008.83
2018-12-11T09:53:22.196Z,1008.84
2018-12-11T09:54:22.204Z,1008.85
2018-12-11T09:55:22.182Z,1008.86
2018-12-11T09:56:22.196Z,1008.78
2018-12-11T09:57:22.137Z,1008.83
2018-12-11T09:58:22.143Z,1008.84
2018-12-11T09:59:23.548Z,1008.81
2018-12-11T10:00:25.743Z,1008.77
2018-12-11T10:01:23.102Z,1008.83
2018-12-11T10:02:22.094Z,1008.82
2018-12-11T10:03:22.101Z,1008.83
2018-12-11T10:04:22.083Z,1008.76
2018-12-11T10:05:22.068Z,1008.74
2018-12-11T10:06:22.048Z,1008.77
2018-12-11T10:07:22.071Z,1008.70
2018-12-11T10:08:22.025Z,1008.65
2018-12-11T10:09:22.012Z,1008.58
2018-12-11T10:10:21.997Z,1008.62
2018-12-11T10:11:21.988Z,1008.66
2018-12-11T10:12:22.022Z,1008.66
2018-12-11T10:13:22.002Z,1008.69
2018-12-11T10:14:21.958Z,1008.64
2018-12-11T10:15:21.953Z,1008.65
2018-12-11T10:16:21.936Z,1008.60
2018-12-11T10:17:21.922Z,1008.60
2018-12-11T10:18:21.930Z,1008.56
2018-12-11T10:19:21.902Z,1008.58
2018-12-11T10:20:21.938Z,1008.65
2018-12-11T10:21:21.916Z,1008.65
2018-12-11T10:22:21.879Z,1008.60
2018-12-11T10:23:21.870Z,1008.55
2018-12-11T10:24:21.860Z,1008.50
2018-12-11T10:25:21.839Z,1008.48
2018-12-11T10:26:21.827Z,1008.52
2018-12-11T10:27:21.828Z,1008.54
2018-12-11T10:28:21.817Z,1008.51
2018-12-11T10:29:21.802Z,1008.55
2018-12-11T10:30:21.818Z,1008.52
2018-12-11T10:31:21.775Z,1008.57
2018-12-11T10:32:21.780Z,1008.61
2018-12-11T10:33:21.751Z,1008.65
2018-12-11T10:34:21.753Z,1008.62
2018-12-11T10:35:21.738Z,1008.68
2018-12-11T10:36:21.731Z,1008.67
2018-12-11T10:37:21.749Z,1008.67
2018-12-11T10:38:21.712Z,1008.68
2018-12-11T10:39:21.694Z,1008.73
2018-12-11T10:40:21.675Z,1008.75
2018-12-11T10:41:21.682Z,1008.74
2018-12-11T10:42:21.690Z,1008.76
2018-12-11T10:43:21.645Z,1008.79
2018-12-11T10:44:21.647Z,1008.74
2018-12-11T10:45:21.621Z,1008.74
2018-12-11T10:46:21.618Z,1008.82
2018-12-11T10:47:22.090Z,1008.87
2018-12-11T10:48:21.585Z,1008.88
2018-12-11T10:49:21.585Z,1008.88
2018-12-11T10:50:21.562Z,1008.87
2018-12-11T10:51:21.579Z,1008.93
2018-12-11T10:52:21.574Z,1008.88
2018-12-11T10:53:21.585Z,1008.86
2018-12-11T10:54:21.519Z,1008.90
2018-12-11T10:55:21.506Z,1008.87
2018-12-11T10:56:21.527Z,1008.84
2018-12-11T10:57:21.536Z,1008.91
2018-12-11T10:58:21.489Z,1008.85
2018-12-11T10:59:21.490Z,1008.78
2018-12-11T11:00:21.451Z,1008.83
2018-12-11T11:01:21.445Z,1008.84
2018-12-11T11:02:21.454Z,1008.76
2018-12-11T11:03:21.419Z,1008.76
2018-12-11T11:04:21.501Z,1008.74
2018-12-11T11:05:21.409Z,1008.71
2018-12-11T11:06:22.165Z,1008.72
2018-12-11T11:07:21.385Z,1008.70
2018-12-11T11:08:21.377Z,1008.68
2018-12-11T11:09:21.356Z,1008.68
2018-12-11T11:10:21.354Z,1008.64
2018-12-11T11:11:21.340Z,1008.70
2018-12-11T11:12:21.328Z,1008.68
2018-12-11T11:13:21.335Z,1008.72
2018-12-11T11:14:21.302Z,1008.72
2018-12-11T11:15:21.307Z,1008.74
2018-12-11T11:16:21.329Z,1008.74
2018-12-11T11:17:21.274Z,1008.72
2018-12-11T11:18:21.274Z,1008.74
2018-12-11T11:19:21.266Z,1008.76
2018-12-11T11:20:21.237Z,1008.80
2018-12-11T11:21:21.250Z,1008.78
2018-12-11T11:22:21.219Z,1008.75
2018-12-11T11:23:21.208Z,1008.83
2018-12-11T11:24:21.199Z,1008.78
2018-12-11T11:25:21.186Z,1008.85
2018-12-11T11:26:21.216Z,1008.84
2018-12-11T11:27:21.207Z,1008.78
2018-12-11T11:28:21.176Z,1008.68
2018-12-11T11:29:21.186Z,1008.82
2018-12-11T11:30:21.135Z,1008.74
2018-12-11T11:31:21.140Z,1008.78
2018-12-11T11:32:21.104Z,1008.77
2018-12-11T11:33:21.097Z,1008.81
2018-12-11T11:34:21.085Z,1008.75
2018-12-11T11:35:21.078Z,1008.71
2018-12-11T11:36:21.092Z,1008.72
2018-12-11T11:37:21.059Z,1008.75
2018-12-11T11:38:21.044Z,1008.72
2018-12-11T11:39:21.080Z,1008.69
2018-12-11T11:40:21.020Z,1008.74
2018-12-11T11:41:21.025Z,1008.71
2018-12-11T11:42:21.011Z,1008.73
2018-12-11T11:43:21.025Z,1008.66
2018-12-11T11:44:20.975Z,1008.68
2018-12-11T11:45:20.982Z,1008.64
2018-12-11T11:46:20.990Z,1008.66
2018-12-11T11:47:20.944Z,1008.69
2018-12-11T11:48:20.953Z,1008.61
2018-12-11T11:49:20.929Z,1008.63
2018-12-11T11:50:20.956Z,1008.61
2018-12-11T11:51:20.944Z,1008.63
2018-12-11T11:52:20.917Z,1008.64
2018-12-11T11:53:20.883Z,1008.61
2018-12-11T11:54:20.875Z,1008.58
2018-12-11T11:55:20.862Z,1008.56
2018-12-11T11:56:20.881Z,1008.57
2018-12-11T11:57:20.860Z,1008.56
2018-12-11T11:58:20.837Z,1008.58
2018-12-11T11:59:20.822Z,1008.52
2018-12-11T12:00:20.814Z,1008.54
2018-12-11T12:01:20.804Z,1008.55
2018-12-11T12:02:20.820Z,1008.55
2018-12-11T12:03:20.789Z,1008.57
2018-12-11T12:04:20.791Z,1008.58
2018-12-11T12:05:20.755Z,1008.51